createdAt,value
2023-02-06T00:00:44.992Z,-4.65
2023-02-06T00:03:11.599Z,-4.65
2023-02-06T00:05:38.278Z,-4.67
2023-02-06T00:08:07.076Z,-4.71
2023-02-06T00:10:34.004Z,-4.74
2023-02-06T00:13:00.632Z,-4.70
2023-02-06T00:15:27.002Z,-4.78
2023-02-06T00:17:53.346Z,-4.72
2023-02-06T00:20:19.690Z,-4.81
2023-02-06T00:22:46.068Z,-4.76
2023-02-06T00:25:12.425Z,-4.77
2023-02-06T00:27:39.170Z,-4.71
2023-02-06T00:30:06.191Z,-4.71
2023-02-06T00:32:34.647Z,-4.76
2023-02-06T00:35:01.215Z,-4.75
2023-02-06T00:37:27.680Z,-4.78
2023-02-06T00:39:54.045Z,-4.79
2023-02-06T00:42:20.641Z,-4.83
2023-02-06T00:44:47.010Z,-4.78
2023-02-06T00:47:13.367Z,-4.81
2023-02-06T00:49:39.718Z,-4.83
2023-02-06T00:52:06.052Z,-4.84
2023-02-06T00:54:32.401Z,-4.79
2023-02-06T00:56:58.775Z,-4.87
2023-02-06T00:59:25.144Z,-4.75
2023-02-06T01:01:51.781Z,-4.89
2023-02-06T01:04:18.321Z,-4.94
2023-02-06T01:06:44.652Z,-4.97
2023-02-06T01:09:11.033Z,-4.99
2023-02-06T01:11:37.420Z,-4.96
2023-02-06T01:14:03.901Z,-4.92
2023-02-06T01:16:30.559Z,-4.96
2023-02-06T01:18:56.930Z,-4.91
2023-02-06T01:21:24.904Z,-4.96
2023-02-06T01:23:53.446Z,-4.96
2023-02-06T01:26:22.803Z,-5.00
2023-02-06T01:28:49.951Z,-4.97
2023-02-06T01:31:22.549Z,-4.99
2023-02-06T01:33:50.040Z,-4.96
2023-02-06T01:36:17.758Z,-4.97
2023-02-06T01:38:44.651Z,-4.93
2023-02-06T01:41:12.795Z,-5.00
2023-02-06T01:43:42.976Z,-4.97
2023-02-06T01:46:09.808Z,-4.97
2023-02-06T01:48:44.017Z,-5.01
2023-02-06T01:51:15.093Z,-5.05
2023-02-06T01:53:44.713Z,-5.05
2023-02-06T01:56:11.977Z,-5.01
2023-02-06T01:58:44.279Z,-5.00
2023-02-06T02:01:11.361Z,-5.06
2023-02-06T02:03:41.665Z,-5.04
2023-02-06T02:06:12.248Z,-5.05
2023-02-06T02:08:42.482Z,-5.13
2023-02-06T02:11:11.821Z,-5.07
2023-02-06T02:13:38.664Z,-4.96
2023-02-06T02:16:18.144Z,-5.01
2023-02-06T02:19:07.526Z,-4.99
2023-02-06T02:21:54.867Z,-5.08
2023-02-06T02:24:40.022Z,-5.07
2023-02-06T02:27:17.767Z,-5.06
2023-02-06T02:30:16.611Z,-5.07
2023-02-06T02:32:58.747Z,-5.05
2023-02-06T02:35:32.777Z,-5.09
2023-02-06T02:38:13.467Z,-5.12
2023-02-06T02:40:49.602Z,-5.07
2023-02-06T02:43:28.548Z,-5.05
2023-02-06T02:45:58.563Z,-5.06
2023-02-06T02:48:40.685Z,-5.07
2023-02-06T02:51:07.881Z,-4.98
2023-02-06T02:53:34.572Z,-5.03
2023-02-06T02:56:01.290Z,-5.07
2023-02-06T02:58:32.580Z,-5.11
2023-02-06T03:01:11.543Z,-5.10
2023-02-06T03:03:41.923Z,-5.13
2023-02-06T03:06:28.642Z,-5.19
2023-02-06T03:09:11.510Z,-5.18
2023-02-06T03:11:45.280Z,-5.13
2023-02-06T03:14:22.209Z,-5.16
2023-02-06T03:16:54.478Z,-5.18
2023-02-06T03:19:29.024Z,-5.17
2023-02-06T03:21:55.501Z,-5.21
2023-02-06T03:24:28.518Z,-5.15
2023-02-06T03:26:59.944Z,-5.22
2023-02-06T03:29:29.969Z,-5.22
2023-02-06T03:32:02.319Z,-5.23
2023-02-06T03:34:41.398Z,-5.21
2023-02-06T03:37:08.076Z,-5.27
2023-02-06T03:39:34.823Z,-5.30
2023-02-06T03:42:02.576Z,-5.27
2023-02-06T03:44:33.655Z,-5.28
2023-02-06T03:47:01.560Z,-5.26
2023-02-06T03:49:30.202Z,-5.25
2023-02-06T03:52:04.824Z,-5.22
2023-02-06T03:54:32.252Z,-5.19
2023-02-06T03:57:03.225Z,-5.23
2023-02-06T03:59:30.481Z,-5.23
2023-02-06T04:01:59.292Z,-5.20
2023-02-06T04:04:29.777Z,-5.19
2023-02-06T04:07:21.290Z,-5.22
2023-02-06T04:09:47.856Z,-5.20
2023-02-06T04:12:15.330Z,-5.19
2023-02-06T04:14:42.479Z,-5.26
2023-02-06T04:17:10.325Z,-5.27
2023-02-06T04:19:37.429Z,-5.27
2023-02-06T04:22:04.382Z,-5.27
2023-02-06T04:24:31.195Z,-5.26
2023-02-06T04:26:58.215Z,-5.29
2023-02-06T04:29:24.840Z,-5.31
2023-02-06T04:31:51.467Z,-5.31
2023-02-06T04:34:17.830Z,-5.34
2023-02-06T04:36:44.180Z,-5.32
2023-02-06T04:39:10.543Z,-5.36
2023-02-06T04:41:36.923Z,-5.31
2023-02-06T04:44:03.505Z,-5.29
2023-02-06T04:46:29.885Z,-5.29
2023-02-06T04:48:56.219Z,-5.34
2023-02-06T04:51:22.603Z,-5.28
2023-02-06T04:53:48.949Z,-5.28
2023-02-06T04:56:15.275Z,-5.23
2023-02-06T04:58:41.637Z,-5.19
2023-02-06T05:01:07.994Z,-5.17
2023-02-06T05:03:34.517Z,-5.12
2023-02-06T05:06:02.643Z,-5.11
2023-02-06T05:08:29.303Z,-5.07
2023-02-06T05:10:56.429Z,-4.97
2023-02-06T05:13:23.672Z,-5.01
2023-02-06T05:15:50.456Z,-5.01
2023-02-06T05:18:17.089Z,-5.03
2023-02-06T05:20:43.826Z,-4.95
2023-02-06T05:23:10.485Z,-5.00
2023-02-06T05:25:37.349Z,-4.97
2023-02-06T05:28:06.618Z,-4.96
2023-02-06T05:30:36.220Z,-4.96
2023-02-06T05:33:02.672Z,-4.92
2023-02-06T05:35:29.328Z,-4.92
2023-02-06T05:37:55.716Z,-4.86
2023-02-06T05:40:22.105Z,-4.87
2023-02-06T05:42:48.456Z,-4.84
2023-02-06T05:45:14.817Z,-4.82
2023-02-06T05:47:41.261Z,-4.80
2023-02-06T05:50:07.854Z,-4.74
2023-02-06T05:52:34.321Z,-4.72
2023-02-06T05:55:00.823Z,-4.76
2023-02-06T05:57:27.161Z,-4.74
2023-02-06T05:59:53.499Z,-4.71
2023-02-06T06:02:19.899Z,-4.69
2023-02-06T06:04:46.333Z,-4.67
2023-02-06T06:07:13.104Z,-4.62
2023-02-06T06:09:39.425Z,-4.60
2023-02-06T06:12:05.999Z,-4.61
2023-02-06T06:14:32.336Z,-4.59
2023-02-06T06:16:58.679Z,-4.54
2023-02-06T06:19:25.066Z,-4.50
2023-02-06T06:21:51.629Z,-4.49
2023-02-06T06:24:18.096Z,-4.45
2023-02-06T06:26:44.445Z,-4.44
2023-02-06T06:29:10.769Z,-4.44
2023-02-06T06:31:37.137Z,-4.38
2023-02-06T06:34:03.507Z,-4.40
2023-02-06T06:36:29.907Z,-4.40
2023-02-06T06:38:56.252Z,-4.41
2023-02-06T06:41:22.641Z,-4.31
2023-02-06T06:43:51.289Z,-4.33
2023-02-06T06:46:19.837Z,-4.37
2023-02-06T06:48:46.228Z,-4.36
2023-02-06T06:51:12.612Z,-4.19
2023-02-06T06:53:39.966Z,-4.32
2023-02-06T06:56:07.818Z,-4.29
2023-02-06T06:58:34.568Z,-4.25
2023-02-06T07:01:01.054Z,-4.29
2023-02-06T07:03:27.696Z,-4.29
2023-02-06T07:05:54.119Z,-4.28
2023-02-06T07:08:20.451Z,-4.26
2023-02-06T07:10:47.594Z,-4.23
2023-02-06T07:13:15.422Z,-4.21
2023-02-06T07:15:42.824Z,-4.19
2023-02-06T07:18:11.581Z,-4.19
2023-02-06T07:20:38.214Z,-4.14
2023-02-06T07:23:05.612Z,-4.14
2023-02-06T07:25:32.474Z,-4.09
2023-02-06T07:27:59.092Z,-4.06
2023-02-06T07:30:25.709Z,-3.98
2023-02-06T07:32:52.198Z,-3.98
2023-02-06T07:35:18.695Z,-3.95
2023-02-06T07:37:45.032Z,-3.98
2023-02-06T07:40:12.263Z,-3.95
2023-02-06T07:42:40.169Z,-3.87
2023-02-06T07:45:06.818Z,-3.87
2023-02-06T07:47:33.209Z,-3.84
2023-02-06T07:49:59.578Z,-3.78
2023-02-06T07:52:26.017Z,-3.75
2023-02-06T07:54:52.382Z,-3.80
2023-02-06T07:57:21.795Z,-3.73
2023-02-06T07:59:48.156Z,-3.66
2023-02-06T08:02:14.514Z,-3.39
2023-02-06T08:04:40.960Z,-2.91
2023-02-06T08:07:11.103Z,-3.13
2023-02-06T08:09:37.457Z,-3.23
2023-02-06T08:12:04.040Z,-3.26
2023-02-06T08:14:31.219Z,-3.24
2023-02-06T08:16:57.649Z,-3.22
2023-02-06T08:19:24.070Z,-3.21
2023-02-06T08:21:50.876Z,-3.26
2023-02-06T08:24:17.575Z,-2.99
2023-02-06T08:26:44.017Z,-2.67
2023-02-06T08:29:10.998Z,-2.84
2023-02-06T08:31:39.895Z,-3.01
2023-02-06T08:34:08.041Z,-3.05
2023-02-06T08:36:34.711Z,-3.03
2023-02-06T08:39:01.974Z,-2.94
2023-02-06T08:41:39.268Z,-2.98
2023-02-06T08:44:11.598Z,-3.04
2023-02-06T08:46:38.840Z,-2.96
2023-02-06T08:49:08.164Z,-2.90
2023-02-06T08:51:35.476Z,-2.92
2023-02-06T08:54:05.808Z,-2.91
2023-02-06T08:56:33.837Z,-2.95
2023-02-06T08:59:01.687Z,-2.58
2023-02-06T09:01:30.397Z,-2.51
2023-02-06T09:03:58.373Z,-2.64
2023-02-06T09:06:25.770Z,-2.64
2023-02-06T09:08:53.133Z,-2.65
2023-02-06T09:11:21.943Z,-2.65
2023-02-06T09:13:49.547Z,-2.62
2023-02-06T09:16:18.233Z,-2.61
2023-02-06T09:18:45.166Z,-2.59
2023-02-06T09:21:20.297Z,-2.56
2023-02-06T09:23:49.810Z,-2.56
2023-02-06T09:26:19.167Z,-2.49
2023-02-06T09:28:45.642Z,-2.38
2023-02-06T09:31:12.194Z,-2.51
2023-02-06T09:33:39.434Z,-2.51
2023-02-06T09:36:13.836Z,-2.45
2023-02-06T09:38:44.034Z,-2.48
2023-02-06T09:41:24.042Z,-2.46
2023-02-06T09:43:54.490Z,-2.41
2023-02-06T09:46:27.452Z,-2.36
2023-02-06T09:48:57.102Z,-2.30
2023-02-06T09:51:50.941Z,-2.25
2023-02-06T09:54:30.165Z,-2.31
2023-02-06T09:57:34.840Z,-2.36
2023-02-06T10:00:20.318Z,-2.35
2023-02-06T10:03:08.145Z,-2.32
2023-02-06T10:05:43.650Z,-2.27
2023-02-06T10:08:13.028Z,-2.21
2023-02-06T10:10:49.005Z,-2.19
2023-02-06T10:13:24.515Z,-2.18
2023-02-06T10:15:55.982Z,-1.95
2023-02-06T10:18:28.364Z,-2.11
2023-02-06T10:21:05.986Z,-1.75
2023-02-06T10:23:47.446Z,-1.94
2023-02-06T10:26:19.307Z,-1.94
2023-02-06T10:28:52.430Z,-1.90
2023-02-06T10:31:24.797Z,-1.95
2023-02-06T10:34:10.220Z,-1.96
2023-02-06T10:37:09.959Z,-1.91
2023-02-06T10:39:49.493Z,-1.95
2023-02-06T10:42:25.777Z,-1.91
2023-02-06T10:45:29.986Z,-1.91
2023-02-06T10:48:09.295Z,-1.69
2023-02-06T10:50:44.235Z,-1.71
2023-02-06T10:53:17.837Z,-1.62
2023-02-06T10:55:57.055Z,-1.55
2023-02-06T10:58:37.426Z,-1.53
2023-02-06T11:01:20.206Z,-1.55
2023-02-06T11:04:10.502Z,-1.53
2023-02-06T11:06:40.113Z,-1.55
2023-02-06T11:09:06.494Z,-1.58
2023-02-06T11:11:39.347Z,-1.54
2023-02-06T11:14:18.514Z,-1.55
2023-02-06T11:16:46.719Z,-1.53
2023-02-06T11:19:17.631Z,-1.50
2023-02-06T11:21:43.966Z,-1.50
2023-02-06T11:24:16.721Z,-1.43
2023-02-06T11:26:48.787Z,-1.35
2023-02-06T11:29:22.450Z,-1.33
2023-02-06T11:31:53.179Z,-1.31
2023-02-06T11:34:24.598Z,-1.22
2023-02-06T11:37:02.426Z,-1.22
2023-02-06T11:39:30.605Z,-1.19
2023-02-06T11:42:13.662Z,-1.15
2023-02-06T11:44:42.502Z,-1.07
2023-02-06T11:47:32.306Z,-1.01
2023-02-06T11:50:14.082Z,-0.98
2023-02-06T11:52:44.619Z,-0.93
2023-02-06T11:55:26.298Z,-0.87
2023-02-06T11:58:11.535Z,-0.84
2023-02-06T12:00:56.844Z,-0.90
2023-02-06T12:03:59.255Z,-0.85
2023-02-06T12:06:33.169Z,-0.76
2023-02-06T12:09:01.741Z,-0.81
2023-02-06T12:11:34.557Z,-0.87
2023-02-06T12:14:16.834Z,-0.85
2023-02-06T12:16:47.694Z,-0.83
2023-02-06T12:19:23.889Z,-0.74
2023-02-06T12:21:57.771Z,-0.35
2023-02-06T12:24:30.041Z,-0.38
2023-02-06T12:26:59.332Z,-0.60
2023-02-06T12:29:42.317Z,-0.51
2023-02-06T12:32:21.030Z,-0.58
2023-02-06T12:34:56.204Z,-0.48
2023-02-06T12:37:31.870Z,-0.36
2023-02-06T12:40:00.333Z,-0.23
2023-02-06T12:42:38.541Z,-0.05
2023-02-06T12:45:14.800Z,-0.22
2023-02-06T12:47:56.331Z,-0.32
2023-02-06T12:50:33.831Z,-0.32
2023-02-06T12:53:10.508Z,-0.38
2023-02-06T12:55:44.503Z,-0.36
2023-02-06T12:58:28.101Z,-0.35
2023-02-06T13:01:32.266Z,-0.32
2023-02-06T13:04:05.330Z,-0.29
2023-02-06T13:06:43.860Z,-0.27
2023-02-06T13:09:20.475Z,-0.29
2023-02-06T13:11:47.206Z,-0.08
2023-02-06T13:14:29.003Z,-0.14
2023-02-06T13:17:17.239Z,-0.25
2023-02-06T13:19:43.536Z,-0.25
2023-02-06T13:22:09.808Z,-0.28
2023-02-06T13:24:41.108Z,-0.31
2023-02-06T13:27:07.388Z,-0.35
2023-02-06T13:29:42.739Z,-0.23
2023-02-06T13:32:12.013Z,-0.24
2023-02-06T13:34:44.391Z,-0.20
2023-02-06T13:37:25.879Z,-0.21
2023-02-06T13:40:23.329Z,-0.16
2023-02-06T13:43:25.534Z,-0.11
2023-02-06T13:45:51.810Z,-0.13
2023-02-06T13:48:37.630Z,-0.07
2023-02-06T13:51:29.268Z,0.08
2023-02-06T13:54:28.249Z,0.04
2023-02-06T13:57:10.526Z,-0.04
2023-02-06T13:59:40.679Z,-0.08
2023-02-06T14:02:13.313Z,-0.06
2023-02-06T14:04:40.128Z,-0.06
2023-02-06T14:07:28.390Z,-0.04
2023-02-06T14:10:28.248Z,-0.05
2023-02-06T14:13:15.046Z,-0.07
2023-02-06T14:15:56.241Z,-0.08
2023-02-06T14:18:50.779Z,-0.08
2023-02-06T14:21:38.599Z,-0.11
2023-02-06T14:24:38.963Z,-0.13
2023-02-06T14:27:15.190Z,-0.14
2023-02-06T14:29:56.876Z,-0.16
2023-02-06T14:32:43.481Z,-0.19
2023-02-06T14:35:47.595Z,-0.13
2023-02-06T14:38:32.952Z,-0.20
2023-02-06T14:41:01.776Z,-0.22
2023-02-06T14:43:32.142Z,-0.30
2023-02-06T14:46:07.485Z,-0.32
2023-02-06T14:48:47.388Z,-0.37
2023-02-06T14:51:35.243Z,-0.42
2023-02-06T14:54:04.863Z,-0.38
2023-02-06T14:56:37.037Z,-0.37
2023-02-06T14:59:12.376Z,-0.31
2023-02-06T15:01:39.678Z,-0.25
2023-02-06T15:04:15.072Z,-0.13
2023-02-06T15:06:49.645Z,0.16
2023-02-06T15:09:24.076Z,0.18
2023-02-06T15:11:56.498Z,0.18
2023-02-06T15:14:28.466Z,0.10
2023-02-06T15:17:00.113Z,-0.02
2023-02-06T15:19:29.783Z,-0.02
2023-02-06T15:22:02.702Z,-0.05
2023-02-06T15:24:44.311Z,0.01
2023-02-06T15:27:30.371Z,-0.07
2023-02-06T15:29:57.238Z,-0.19
2023-02-06T15:32:37.867Z,-0.30
2023-02-06T15:35:19.416Z,-0.37
2023-02-06T15:37:46.022Z,-0.55
2023-02-06T15:40:15.280Z,-0.57
2023-02-06T15:42:42.072Z,-0.73
2023-02-06T15:45:19.237Z,-0.77
2023-02-06T15:47:46.108Z,-0.85
2023-02-06T15:50:18.926Z,-0.90
2023-02-06T15:52:47.430Z,-0.96
2023-02-06T15:55:35.682Z,-1.00
2023-02-06T15:58:05.190Z,-1.03
2023-02-06T16:00:35.444Z,-0.98
2023-02-06T16:03:07.676Z,-0.83
2023-02-06T16:05:40.519Z,-0.59
2023-02-06T16:08:20.200Z,-0.83
2023-02-06T16:10:57.961Z,-1.01
2023-02-06T16:13:27.586Z,-1.06
2023-02-06T16:16:09.469Z,-1.16
2023-02-06T16:18:38.420Z,-1.23
2023-02-06T16:21:18.430Z,-1.28
2023-02-06T16:23:49.051Z,-1.33
2023-02-06T16:26:30.268Z,-1.33
2023-02-06T16:29:16.379Z,-1.31
2023-02-06T16:31:44.734Z,-1.24
2023-02-06T16:34:32.305Z,-1.28
2023-02-06T16:36:58.658Z,-1.21
2023-02-06T16:39:25.045Z,-1.28
2023-02-06T16:41:52.887Z,-1.42
2023-02-06T16:44:20.171Z,-1.44
2023-02-06T16:46:46.760Z,-1.54
2023-02-06T16:49:16.596Z,-1.49
2023-02-06T16:51:44.227Z,-1.48
2023-02-06T16:54:23.275Z,-1.39
2023-02-06T16:56:49.894Z,-1.48
2023-02-06T16:59:16.281Z,-1.58
2023-02-06T17:01:42.685Z,-1.67
2023-02-06T17:04:09.036Z,-1.74
2023-02-06T17:06:36.004Z,-1.79
2023-02-06T17:09:08.836Z,-1.85
2023-02-06T17:11:36.910Z,-1.84
2023-02-06T17:14:03.452Z,-1.89
2023-02-06T17:16:31.213Z,-1.94
2023-02-06T17:18:57.890Z,-2.00
2023-02-06T17:21:24.812Z,-2.02
2023-02-06T17:23:51.708Z,-2.07
2023-02-06T17:26:21.200Z,-2.11
2023-02-06T17:28:48.457Z,-2.15
2023-02-06T17:31:15.224Z,-2.14
2023-02-06T17:33:41.712Z,-2.14
2023-02-06T17:36:15.581Z,-2.17
2023-02-06T17:38:41.925Z,-2.18
2023-02-06T17:41:08.303Z,-2.18
2023-02-06T17:43:36.241Z,-2.19
2023-02-06T17:46:04.892Z,-2.11
2023-02-06T17:48:32.566Z,-2.19
2023-02-06T17:50:59.030Z,-2.23
2023-02-06T17:53:25.371Z,-2.23
2023-02-06T17:55:51.736Z,-2.25
2023-02-06T17:58:18.769Z,-2.30
2023-02-06T18:00:49.170Z,-2.32
2023-02-06T18:03:18.140Z,-2.33
2023-02-06T18:05:45.012Z,-2.35
2023-02-06T18:08:11.920Z,-2.37
2023-02-06T18:10:39.420Z,-2.40
2023-02-06T18:13:05.870Z,-2.42
2023-02-06T18:15:32.346Z,-2.45
2023-02-06T18:17:59.583Z,-2.45
2023-02-06T18:20:25.966Z,-2.47
2023-02-06T18:22:52.428Z,-2.47
2023-02-06T18:25:18.891Z,-2.44
2023-02-06T18:27:45.994Z,-2.49
2023-02-06T18:30:14.543Z,-2.35
2023-02-06T18:32:41.095Z,-2.33
2023-02-06T18:35:09.038Z,-2.26
2023-02-06T18:37:35.715Z,-2.40
2023-02-06T18:40:02.797Z,-2.52
2023-02-06T18:42:47.548Z,-2.57
2023-02-06T18:45:13.935Z,-2.65
2023-02-06T18:47:42.306Z,-2.72
2023-02-06T18:50:12.029Z,-2.75
2023-02-06T18:52:39.293Z,-2.79
2023-02-06T18:55:08.105Z,-2.82
2023-02-06T18:57:35.614Z,-2.88
2023-02-06T19:00:04.026Z,-2.88
2023-02-06T19:02:30.474Z,-2.85
2023-02-06T19:04:58.820Z,-2.81
2023-02-06T19:07:25.545Z,-2.85
2023-02-06T19:09:59.261Z,-2.87
2023-02-06T19:12:30.370Z,-2.92
2023-02-06T19:14:57.988Z,-2.96
2023-02-06T19:17:26.139Z,-2.97
2023-02-06T19:19:52.737Z,-3.01
2023-02-06T19:22:19.227Z,-3.06
2023-02-06T19:24:45.592Z,-3.06
2023-02-06T19:27:13.057Z,-3.10
2023-02-06T19:29:39.569Z,-3.11
2023-02-06T19:32:07.923Z,-3.17
2023-02-06T19:34:36.397Z,-3.16
2023-02-06T19:37:07.668Z,-3.16
2023-02-06T19:39:35.704Z,-3.18
2023-02-06T19:42:06.795Z,-3.20
2023-02-06T19:44:34.061Z,-3.25
2023-02-06T19:47:01.643Z,-3.28
2023-02-06T19:49:28.176Z,-3.43
2023-02-06T19:51:54.828Z,-3.50
2023-02-06T19:54:21.171Z,-3.48
2023-02-06T19:56:47.784Z,-3.51
2023-02-06T19:59:26.053Z,-3.47
2023-02-06T20:02:02.421Z,-3.49
2023-02-06T20:04:34.647Z,-3.50
2023-02-06T20:07:01.552Z,-3.56
2023-02-06T20:09:28.458Z,-3.55
2023-02-06T20:11:55.034Z,-3.55
2023-02-06T20:14:22.123Z,-3.56
2023-02-06T20:16:49.208Z,-3.54
2023-02-06T20:19:18.947Z,-3.52
2023-02-06T20:21:48.123Z,-3.63
2023-02-06T20:24:23.498Z,-3.70
2023-02-06T20:26:55.657Z,-3.76
2023-02-06T20:29:31.638Z,-3.73
2023-02-06T20:31:58.746Z,-3.73
2023-02-06T20:34:26.970Z,-3.72
2023-02-06T20:36:56.832Z,-3.73
2023-02-06T20:39:24.209Z,-3.73
2023-02-06T20:41:50.747Z,-3.82
2023-02-06T20:44:18.291Z,-3.83
2023-02-06T20:46:45.110Z,-3.86
2023-02-06T20:49:20.059Z,-3.82
2023-02-06T20:51:48.923Z,-3.87
2023-02-06T20:54:15.949Z,-3.89
2023-02-06T20:56:42.466Z,-3.94
2023-02-06T20:59:12.716Z,-4.00
2023-02-06T21:01:39.940Z,-4.06
2023-02-06T21:04:09.487Z,-4.17
2023-02-06T21:06:37.306Z,-4.18
2023-02-06T21:09:05.850Z,-4.22
2023-02-06T21:11:35.521Z,-4.24
2023-02-06T21:14:04.813Z,-4.29
2023-02-06T21:16:32.104Z,-4.28
2023-02-06T21:18:59.952Z,-4.30
2023-02-06T21:21:26.733Z,-4.39
2023-02-06T21:23:55.843Z,-4.30
2023-02-06T21:26:23.684Z,-4.41
2023-02-06T21:28:50.484Z,-4.58
2023-02-06T21:31:20.991Z,-4.71
2023-02-06T21:33:49.114Z,-4.68
2023-02-06T21:36:15.790Z,-4.63
2023-02-06T21:38:42.750Z,-4.80
2023-02-06T21:41:13.249Z,-4.80
2023-02-06T21:43:39.659Z,-4.77
2023-02-06T21:46:06.859Z,-4.80
2023-02-06T21:48:34.347Z,-4.83
2023-02-06T21:51:12.706Z,-4.84
2023-02-06T21:53:39.457Z,-4.86
2023-02-06T21:56:11.815Z,-4.86
2023-02-06T21:58:38.154Z,-4.88
2023-02-06T22:01:08.764Z,-4.89
2023-02-06T22:03:35.494Z,-4.93
2023-02-06T22:06:08.417Z,-4.89
2023-02-06T22:08:36.478Z,-4.88
2023-02-06T22:11:10.831Z,-4.96
2023-02-06T22:13:37.173Z,-4.91
2023-02-06T22:16:03.735Z,-4.97
2023-02-06T22:18:30.163Z,-5.03
2023-02-06T22:21:04.204Z,-5.15
2023-02-06T22:23:30.581Z,-5.15
2023-02-06T22:25:56.953Z,-5.16
2023-02-06T22:28:23.311Z,-5.28
2023-02-06T22:30:49.856Z,-5.26
2023-02-06T22:33:16.249Z,-5.25
2023-02-06T22:35:42.634Z,-5.29
2023-02-06T22:38:09.079Z,-5.25
2023-02-06T22:40:35.430Z,-5.29
2023-02-06T22:43:01.770Z,-5.38
2023-02-06T22:45:28.235Z,-5.32
2023-02-06T22:47:54.608Z,-5.34
2023-02-06T22:50:21.912Z,-5.50
2023-02-06T22:53:06.825Z,-5.47
2023-02-06T22:55:57.271Z,-5.51
2023-02-06T22:58:23.643Z,-5.46
2023-02-06T23:00:50.095Z,-5.42
2023-02-06T23:03:16.561Z,-5.51
2023-02-06T23:05:42.947Z,-5.56
2023-02-06T23:08:09.275Z,-5.53
2023-02-06T23:10:35.716Z,-5.60
2023-02-06T23:13:02.256Z,-5.66
2023-02-06T23:15:28.622Z,-5.68
2023-02-06T23:17:58.282Z,-5.73
2023-02-06T23:20:27.304Z,-5.83
2023-02-06T23:22:53.684Z,-5.77
2023-02-06T23:25:20.031Z,-5.81
2023-02-06T23:27:46.448Z,-5.61
2023-02-06T23:30:13.131Z,-5.66
2023-02-06T23:32:39.507Z,-5.67
2023-02-06T23:35:06.084Z,-5.67
2023-02-06T23:37:32.477Z,-5.76
2023-02-06T23:39:58.960Z,-5.74
2023-02-06T23:42:25.308Z,-5.74
2023-02-06T23:44:51.670Z,-5.78
2023-02-06T23:47:18.024Z,-5.78
2023-02-06T23:49:44.377Z,-5.85
2023-02-06T23:52:10.773Z,-5.80
2023-02-06T23:54:37.206Z,-5.83
2023-02-06T23:57:03.683Z,-5.86
2023-02-06T23:59:30.082Z,-5.97
